sensor_id;sensor_type;location;lat;lon;timestamp;P1;durP1;ratioP1;P2;durP2;ratioP2
23573;SDS011;11965;53.640;10.050;2023-04-24T00:01:22;7.54;;;7.54;;
23573;SDS011;11965;53.640;10.050;2023-04-24T00:03:49;7.68;;;7.68;;
23573;SDS011;11965;53.640;10.050;2023-04-24T00:06:16;7.94;;;7.94;;
23573;SDS011;11965;53.640;10.050;2023-04-24T00:08:43;7.88;;;7.88;;
23573;SDS011;11965;53.640;10.050;2023-04-24T00:11:12;7.67;;;7.67;;
23573;SDS011;11965;53.640;10.050;2023-04-24T00:13:39;8.53;;;8.53;;
23573;SDS011;11965;53.640;10.050;2023-04-24T00:16:06;8.44;;;8.44;;
23573;SDS011;11965;53.640;10.050;2023-04-24T00:18:33;8.10;;;8.10;;
23573;SDS011;11965;53.640;10.050;2023-04-24T00:21:00;7.81;;;7.81;;
23573;SDS011;11965;53.640;10.050;2023-04-24T00:23:27;8.44;;;8.44;;
23573;SDS011;11965;53.640;10.050;2023-04-24T00:25:54;8.31;;;8.31;;
23573;SDS011;11965;53.640;10.050;2023-04-24T00:28:23;7.76;;;7.76;;
23573;SDS011;11965;53.640;10.050;2023-04-24T00:30:50;7.89;;;7.89;;
23573;SDS011;11965;53.640;10.050;2023-04-24T00:33:18;7.99;;;7.99;;
23573;SDS011;11965;53.640;10.050;2023-04-24T00:35:45;7.76;;;7.76;;
23573;SDS011;11965;53.640;10.050;2023-04-24T00:38:12;8.14;;;8.14;;
23573;SDS011;11965;53.640;10.050;2023-04-24T00:40:41;8.08;;;8.08;;
23573;SDS011;11965;53.640;10.050;2023-04-24T00:43:08;7.95;;;7.95;;
23573;SDS011;11965;53.640;10.050;2023-04-24T00:45:36;8.09;;;8.09;;
23573;SDS011;11965;53.640;10.050;2023-04-24T00:48:03;8.47;;;8.47;;
23573;SDS011;11965;53.640;10.050;2023-04-24T00:50:31;8.10;;;8.10;;
23573;SDS011;11965;53.640;10.050;2023-04-24T00:52:58;7.98;;;7.98;;
23573;SDS011;11965;53.640;10.050;2023-04-24T00:55:26;8.01;;;8.01;;
23573;SDS011;11965;53.640;10.050;2023-04-24T00:57:53;8.29;;;8.29;;
23573;SDS011;11965;53.640;10.050;2023-04-24T01:00:20;8.01;;;8.01;;
23573;SDS011;11965;53.640;10.050;2023-04-24T01:02:49;8.10;;;8.10;;
23573;SDS011;11965;53.640;10.050;2023-04-24T01:05:17;8.16;;;8.16;;
23573;SDS011;11965;53.640;10.050;2023-04-24T01:07:45;8.13;;;8.13;;
23573;SDS011;11965;53.640;10.050;2023-04-24T01:10:14;8.17;;;8.17;;
23573;SDS011;11965;53.640;10.050;2023-04-24T01:12:44;8.45;;;8.45;;
23573;SDS011;11965;53.640;10.050;2023-04-24T01:15:12;8.63;;;8.63;;
23573;SDS011;11965;53.640;10.050;2023-04-24T01:17:41;8.78;;;8.78;;
23573;SDS011;11965;53.640;10.050;2023-04-24T01:20:10;8.89;;;8.89;;
23573;SDS011;11965;53.640;10.050;2023-04-24T01:22:38;8.37;;;8.37;;
23573;SDS011;11965;53.640;10.050;2023-04-24T01:25:06;9.12;;;9.12;;
23573;SDS011;11965;53.640;10.050;2023-04-24T01:27:33;9.13;;;9.13;;
23573;SDS011;11965;53.640;10.050;2023-04-24T01:30:00;8.79;;;8.79;;
23573;SDS011;11965;53.640;10.050;2023-04-24T01:32:29;8.40;;;8.40;;
23573;SDS011;11965;53.640;10.050;2023-04-24T01:34:56;8.81;;;8.81;;
23573;SDS011;11965;53.640;10.050;2023-04-24T01:37:23;8.72;;;8.72;;
23573;SDS011;11965;53.640;10.050;2023-04-24T01:39:53;9.02;;;9.02;;
23573;SDS011;11965;53.640;10.050;2023-04-24T01:42:20;8.87;;;8.87;;
23573;SDS011;11965;53.640;10.050;2023-04-24T01:44:47;8.55;;;8.55;;
23573;SDS011;11965;53.640;10.050;2023-04-24T01:47:15;8.40;;;8.40;;
23573;SDS011;11965;53.640;10.050;2023-04-24T01:49:42;8.49;;;8.49;;
23573;SDS011;11965;53.640;10.050;2023-04-24T01:52:11;8.57;;;8.57;;
23573;SDS011;11965;53.640;10.050;2023-04-24T01:54:38;7.97;;;7.97;;
23573;SDS011;11965;53.640;10.050;2023-04-24T01:57:06;8.36;;;8.36;;
23573;SDS011;11965;53.640;10.050;2023-04-24T01:59:34;8.12;;;8.12;;
23573;SDS011;11965;53.640;10.050;2023-04-24T02:02:01;7.87;;;7.87;;
23573;SDS011;11965;53.640;10.050;2023-04-24T02:04:28;7.56;;;7.56;;
23573;SDS011;11965;53.640;10.050;2023-04-24T02:06:56;6.84;;;6.84;;
23573;SDS011;11965;53.640;10.050;2023-04-24T02:09:23;7.07;;;7.07;;
23573;SDS011;11965;53.640;10.050;2023-04-24T02:11:51;7.18;;;7.18;;
23573;SDS011;11965;53.640;10.050;2023-04-24T02:14:19;6.50;;;6.50;;
23573;SDS011;11965;53.640;10.050;2023-04-24T02:16:46;6.11;;;6.11;;
23573;SDS011;11965;53.640;10.050;2023-04-24T02:19:13;6.26;;;6.26;;
23573;SDS011;11965;53.640;10.050;2023-04-24T02:21:40;6.14;;;6.14;;
23573;SDS011;11965;53.640;10.050;2023-04-24T02:24:07;5.79;;;5.79;;
23573;SDS011;11965;53.640;10.050;2023-04-24T02:26:34;5.64;;;5.64;;
23573;SDS011;11965;53.640;10.050;2023-04-24T02:29:01;5.25;;;5.25;;
23573;SDS011;11965;53.640;10.050;2023-04-24T02:31:30;5.03;;;5.03;;
23573;SDS011;11965;53.640;10.050;2023-04-24T02:33:56;4.92;;;4.92;;
23573;SDS011;11965;53.640;10.050;2023-04-24T02:36:23;4.56;;;4.56;;
23573;SDS011;11965;53.640;10.050;2023-04-24T02:38:50;4.82;;;4.82;;
23573;SDS011;11965;53.640;10.050;2023-04-24T02:41:17;4.60;;;4.60;;
23573;SDS011;11965;53.640;10.050;2023-04-24T02:43:44;4.36;;;4.36;;
23573;SDS011;11965;53.640;10.050;2023-04-24T02:46:11;4.82;;;4.82;;
23573;SDS011;11965;53.640;10.050;2023-04-24T02:48:40;4.96;;;4.96;;
23573;SDS011;11965;53.640;10.050;2023-04-24T02:51:07;5.30;;;5.30;;
23573;SDS011;11965;53.640;10.050;2023-04-24T02:53:34;4.91;;;4.91;;
23573;SDS011;11965;53.640;10.050;2023-04-24T02:56:01;4.87;;;4.87;;
23573;SDS011;11965;53.640;10.050;2023-04-24T02:58:28;5.11;;;5.11;;
23573;SDS011;11965;53.640;10.050;2023-04-24T03:00:55;5.62;;;5.62;;
23573;SDS011;11965;53.640;10.050;2023-04-24T03:03:22;5.23;;;5.23;;
23573;SDS011;11965;53.640;10.050;2023-04-24T03:05:51;5.04;;;5.04;;
23573;SDS011;11965;53.640;10.050;2023-04-24T03:08:18;4.73;;;4.73;;
23573;SDS011;11965;53.640;10.050;2023-04-24T03:10:45;5.04;;;5.04;;
23573;SDS011;11965;53.640;10.050;2023-04-24T03:13:14;4.55;;;4.55;;
23573;SDS011;11965;53.640;10.050;2023-04-24T03:15:41;4.74;;;4.74;;
23573;SDS011;11965;53.640;10.050;2023-04-24T03:18:08;4.65;;;4.65;;
23573;SDS011;11965;53.640;10.050;2023-04-24T03:20:35;4.56;;;4.56;;
23573;SDS011;11965;53.640;10.050;2023-04-24T03:23:04;4.41;;;4.41;;
23573;SDS011;11965;53.640;10.050;2023-04-24T03:25:31;4.05;;;4.05;;
23573;SDS011;11965;53.640;10.050;2023-04-24T03:27:58;3.91;;;3.91;;
23573;SDS011;11965;53.640;10.050;2023-04-24T03:30:51;3.91;;;3.91;;
23573;SDS011;11965;53.640;10.050;2023-04-24T03:33:19;3.79;;;3.79;;
23573;SDS011;11965;53.640;10.050;2023-04-24T03:35:58;3.59;;;3.59;;
23573;SDS011;11965;53.640;10.050;2023-04-24T03:38:28;3.76;;;3.76;;
23573;SDS011;11965;53.640;10.050;2023-04-24T03:41:18;3.88;;;3.88;;
23573;SDS011;11965;53.640;10.050;2023-04-24T03:43:49;3.50;;;3.50;;
23573;SDS011;11965;53.640;10.050;2023-04-24T03:46:15;3.55;;;3.55;;
23573;SDS011;11965;53.640;10.050;2023-04-24T03:48:49;3.75;;;3.75;;
23573;SDS011;11965;53.640;10.050;2023-04-24T03:51:18;3.25;;;3.25;;
23573;SDS011;11965;53.640;10.050;2023-04-24T03:53:49;3.34;;;3.34;;
23573;SDS011;11965;53.640;10.050;2023-04-24T03:56:19;3.27;;;3.27;;
23573;SDS011;11965;53.640;10.050;2023-04-24T03:58:46;3.17;;;3.17;;
23573;SDS011;11965;53.640;10.050;2023-04-24T04:01:13;3.36;;;3.36;;
23573;SDS011;11965;53.640;10.050;2023-04-24T04:03:48;3.28;;;3.28;;
23573;SDS011;11965;53.640;10.050;2023-04-24T04:06:19;3.44;;;3.44;;
23573;SDS011;11965;53.640;10.050;2023-04-24T04:08:48;3.35;;;3.35;;
23573;SDS011;11965;53.640;10.050;2023-04-24T04:11:15;3.14;;;3.14;;
23573;SDS011;11965;53.640;10.050;2023-04-24T04:13:44;3.35;;;3.35;;
23573;SDS011;11965;53.640;10.050;2023-04-24T04:16:13;3.35;;;3.35;;
23573;SDS011;11965;53.640;10.050;2023-04-24T04:18:42;3.40;;;3.40;;
23573;SDS011;11965;53.640;10.050;2023-04-24T04:21:09;3.56;;;3.56;;
23573;SDS011;11965;53.640;10.050;2023-04-24T04:23:36;3.34;;;3.34;;
23573;SDS011;11965;53.640;10.050;2023-04-24T04:26:11;3.09;;;3.09;;
23573;SDS011;11965;53.640;10.050;2023-04-24T04:28:51;3.12;;;3.12;;
23573;SDS011;11965;53.640;10.050;2023-04-24T04:31:19;2.87;;;2.87;;
23573;SDS011;11965;53.640;10.050;2023-04-24T04:33:47;2.83;;;2.83;;
23573;SDS011;11965;53.640;10.050;2023-04-24T04:36:14;2.87;;;2.87;;
23573;SDS011;11965;53.640;10.050;2023-04-24T04:38:45;2.79;;;2.79;;
23573;SDS011;11965;53.640;10.050;2023-04-24T04:41:37;2.46;;;2.46;;
23573;SDS011;11965;53.640;10.050;2023-04-24T04:44:06;2.62;;;2.62;;
23573;SDS011;11965;53.640;10.050;2023-04-24T04:46:34;2.53;;;2.53;;
23573;SDS011;11965;53.640;10.050;2023-04-24T04:49:10;2.31;;;2.31;;
23573;SDS011;11965;53.640;10.050;2023-04-24T04:51:38;2.40;;;2.40;;
23573;SDS011;11965;53.640;10.050;2023-04-24T04:54:05;2.14;;;2.14;;
23573;SDS011;11965;53.640;10.050;2023-04-24T04:56:34;2.31;;;2.31;;
23573;SDS011;11965;53.640;10.050;2023-04-24T04:59:03;2.35;;;2.35;;
23573;SDS011;11965;53.640;10.050;2023-04-24T05:01:31;2.26;;;2.26;;
23573;SDS011;11965;53.640;10.050;2023-04-24T05:03:58;2.35;;;2.35;;
23573;SDS011;11965;53.640;10.050;2023-04-24T05:06:25;2.30;;;2.30;;
23573;SDS011;11965;53.640;10.050;2023-04-24T05:08:53;2.18;;;2.18;;
23573;SDS011;11965;53.640;10.050;2023-04-24T05:11:32;2.10;;;2.10;;
23573;SDS011;11965;53.640;10.050;2023-04-24T05:14:00;2.17;;;2.17;;
23573;SDS011;11965;53.640;10.050;2023-04-24T05:16:36;2.01;;;2.01;;
23573;SDS011;11965;53.640;10.050;2023-04-24T05:19:04;1.97;;;1.97;;
23573;SDS011;11965;53.640;10.050;2023-04-24T05:21:35;2.05;;;2.05;;
23573;SDS011;11965;53.640;10.050;2023-04-24T05:24:02;2.11;;;2.11;;
23573;SDS011;11965;53.640;10.050;2023-04-24T05:27:08;2.03;;;2.03;;
23573;SDS011;11965;53.640;10.050;2023-04-24T05:29:40;2.40;;;2.40;;
23573;SDS011;11965;53.640;10.050;2023-04-24T05:32:07;2.28;;;2.28;;
23573;SDS011;11965;53.640;10.050;2023-04-24T05:34:34;2.13;;;2.13;;
23573;SDS011;11965;53.640;10.050;2023-04-24T05:37:02;2.24;;;2.24;;
23573;SDS011;11965;53.640;10.050;2023-04-24T05:39:33;2.02;;;2.02;;
23573;SDS011;11965;53.640;10.050;2023-04-24T05:42:00;2.22;;;2.22;;
23573;SDS011;11965;53.640;10.050;2023-04-24T05:44:28;1.99;;;1.99;;
23573;SDS011;11965;53.640;10.050;2023-04-24T05:46:56;2.09;;;2.09;;
23573;SDS011;11965;53.640;10.050;2023-04-24T05:49:23;2.20;;;2.20;;
23573;SDS011;11965;53.640;10.050;2023-04-24T05:51:50;1.96;;;1.96;;
23573;SDS011;11965;53.640;10.050;2023-04-24T05:54:17;2.13;;;2.13;;
23573;SDS011;11965;53.640;10.050;2023-04-24T05:56:45;2.18;;;2.18;;
23573;SDS011;11965;53.640;10.050;2023-04-24T05:59:16;2.21;;;2.21;;
23573;SDS011;11965;53.640;10.050;2023-04-24T06:01:44;2.24;;;2.24;;
23573;SDS011;11965;53.640;10.050;2023-04-24T06:04:19;2.38;;;2.38;;
23573;SDS011;11965;53.640;10.050;2023-04-24T06:06:46;2.37;;;2.37;;
23573;SDS011;11965;53.640;10.050;2023-04-24T06:09:16;2.26;;;2.26;;
23573;SDS011;11965;53.640;10.050;2023-04-24T06:11:43;2.57;;;2.57;;
23573;SDS011;11965;53.640;10.050;2023-04-24T06:14:12;2.73;;;2.73;;
23573;SDS011;11965;53.640;10.050;2023-04-24T06:16:59;2.62;;;2.62;;
23573;SDS011;11965;53.640;10.050;2023-04-24T06:19:36;2.71;;;2.71;;
23573;SDS011;11965;53.640;10.050;2023-04-24T06:22:03;2.69;;;2.69;;
23573;SDS011;11965;53.640;10.050;2023-04-24T06:24:30;2.53;;;2.53;;
23573;SDS011;11965;53.640;10.050;2023-04-24T06:26:57;2.45;;;2.45;;
23573;SDS011;11965;53.640;10.050;2023-04-24T06:29:25;2.46;;;2.46;;
23573;SDS011;11965;53.640;10.050;2023-04-24T06:31:52;2.41;;;2.41;;
23573;SDS011;11965;53.640;10.050;2023-04-24T06:34:19;2.24;;;2.24;;
23573;SDS011;11965;53.640;10.050;2023-04-24T06:36:47;2.26;;;2.26;;
23573;SDS011;11965;53.640;10.050;2023-04-24T06:39:14;2.43;;;2.43;;
23573;SDS011;11965;53.640;10.050;2023-04-24T06:41:41;2.14;;;2.14;;
23573;SDS011;11965;53.640;10.050;2023-04-24T06:44:17;2.32;;;2.32;;
23573;SDS011;11965;53.640;10.050;2023-04-24T06:46:44;2.32;;;2.32;;
23573;SDS011;11965;53.640;10.050;2023-04-24T06:49:11;2.38;;;2.38;;
23573;SDS011;11965;53.640;10.050;2023-04-24T06:51:41;2.45;;;2.45;;
23573;SDS011;11965;53.640;10.050;2023-04-24T06:54:09;2.50;;;2.50;;
23573;SDS011;11965;53.640;10.050;2023-04-24T06:56:36;2.65;;;2.65;;
23573;SDS011;11965;53.640;10.050;2023-04-24T06:59:03;2.58;;;2.58;;
23573;SDS011;11965;53.640;10.050;2023-04-24T07:01:30;2.54;;;2.54;;
23573;SDS011;11965;53.640;10.050;2023-04-24T07:03:57;2.64;;;2.64;;
23573;SDS011;11965;53.640;10.050;2023-04-24T07:06:24;2.51;;;2.51;;
23573;SDS011;11965;53.640;10.050;2023-04-24T07:08:52;2.56;;;2.56;;
23573;SDS011;11965;53.640;10.050;2023-04-24T07:11:21;2.60;;;2.60;;
23573;SDS011;11965;53.640;10.050;2023-04-24T07:13:48;2.56;;;2.56;;
23573;SDS011;11965;53.640;10.050;2023-04-24T07:16:15;3.21;;;3.21;;
23573;SDS011;11965;53.640;10.050;2023-04-24T07:18:42;2.78;;;2.78;;
23573;SDS011;11965;53.640;10.050;2023-04-24T07:21:09;3.07;;;3.07;;
23573;SDS011;11965;53.640;10.050;2023-04-24T07:23:36;3.37;;;3.37;;
23573;SDS011;11965;53.640;10.050;2023-04-24T07:26:03;3.52;;;3.52;;
23573;SDS011;11965;53.640;10.050;2023-04-24T07:28:32;3.38;;;3.38;;
23573;SDS011;11965;53.640;10.050;2023-04-24T07:30:59;3.44;;;3.44;;
23573;SDS011;11965;53.640;10.050;2023-04-24T07:33:26;3.20;;;3.20;;
23573;SDS011;11965;53.640;10.050;2023-04-24T07:35:53;3.33;;;3.33;;
23573;SDS011;11965;53.640;10.050;2023-04-24T07:38:20;4.27;;;4.27;;
23573;SDS011;11965;53.640;10.050;2023-04-24T07:40:47;4.48;;;4.48;;
23573;SDS011;11965;53.640;10.050;2023-04-24T07:43:14;4.29;;;4.29;;
23573;SDS011;11965;53.640;10.050;2023-04-24T07:45:42;4.14;;;4.14;;
23573;SDS011;11965;53.640;10.050;2023-04-24T07:48:09;4.04;;;4.04;;
23573;SDS011;11965;53.640;10.050;2023-04-24T07:50:36;4.50;;;4.50;;
23573;SDS011;11965;53.640;10.050;2023-04-24T07:53:03;4.31;;;4.31;;
23573;SDS011;11965;53.640;10.050;2023-04-24T07:55:30;4.83;;;4.83;;
23573;SDS011;11965;53.640;10.050;2023-04-24T07:57:57;4.63;;;4.63;;
23573;SDS011;11965;53.640;10.050;2023-04-24T08:00:24;4.31;;;4.31;;
23573;SDS011;11965;53.640;10.050;2023-04-24T08:02:53;5.21;;;5.21;;
23573;SDS011;11965;53.640;10.050;2023-04-24T08:05:20;5.04;;;5.04;;
23573;SDS011;11965;53.640;10.050;2023-04-24T08:07:46;5.28;;;5.28;;
23573;SDS011;11965;53.640;10.050;2023-04-24T08:10:15;5.77;;;5.77;;
23573;SDS011;11965;53.640;10.050;2023-04-24T08:12:42;5.64;;;5.64;;
23573;SDS011;11965;53.640;10.050;2023-04-24T08:15:09;6.19;;;6.19;;
23573;SDS011;11965;53.640;10.050;2023-04-24T08:17:37;6.24;;;6.24;;
23573;SDS011;11965;53.640;10.050;2023-04-24T08:20:06;6.03;;;6.03;;
23573;SDS011;11965;53.640;10.050;2023-04-24T08:22:38;6.19;;;6.19;;
23573;SDS011;11965;53.640;10.050;2023-04-24T08:25:05;6.21;;;6.21;;
23573;SDS011;11965;53.640;10.050;2023-04-24T08:27:33;5.87;;;5.87;;
23573;SDS011;11965;53.640;10.050;2023-04-24T08:30:02;6.21;;;6.21;;
23573;SDS011;11965;53.640;10.050;2023-04-24T08:32:29;6.53;;;6.53;;
23573;SDS011;11965;53.640;10.050;2023-04-24T08:34:56;6.63;;;6.63;;
23573;SDS011;11965;53.640;10.050;2023-04-24T08:37:25;6.98;;;6.98;;
23573;SDS011;11965;53.640;10.050;2023-04-24T08:39:53;6.99;;;6.99;;
23573;SDS011;11965;53.640;10.050;2023-04-24T08:42:21;7.92;;;7.92;;
23573;SDS011;11965;53.640;10.050;2023-04-24T08:44:48;7.49;;;7.49;;
23573;SDS011;11965;53.640;10.050;2023-04-24T08:47:16;7.49;;;7.49;;
23573;SDS011;11965;53.640;10.050;2023-04-24T08:49:43;7.23;;;7.23;;
23573;SDS011;11965;53.640;10.050;2023-04-24T08:52:11;7.02;;;7.02;;
23573;SDS011;11965;53.640;10.050;2023-04-24T08:54:40;6.54;;;6.54;;
23573;SDS011;11965;53.640;10.050;2023-04-24T08:57:10;6.14;;;6.14;;
23573;SDS011;11965;53.640;10.050;2023-04-24T08:59:40;6.61;;;6.61;;
23573;SDS011;11965;53.640;10.050;2023-04-24T09:02:10;6.79;;;6.79;;
23573;SDS011;11965;53.640;10.050;2023-04-24T09:04:38;6.87;;;6.87;;
23573;SDS011;11965;53.640;10.050;2023-04-24T09:07:08;7.12;;;7.12;;
23573;SDS011;11965;53.640;10.050;2023-04-24T09:09:38;6.92;;;6.92;;
23573;SDS011;11965;53.640;10.050;2023-04-24T09:12:08;7.39;;;7.39;;
23573;SDS011;11965;53.640;10.050;2023-04-24T09:14:36;7.42;;;7.42;;
23573;SDS011;11965;53.640;10.050;2023-04-24T09:17:07;7.57;;;7.57;;
23573;SDS011;11965;53.640;10.050;2023-04-24T09:19:34;8.19;;;8.19;;
23573;SDS011;11965;53.640;10.050;2023-04-24T09:22:04;7.91;;;7.91;;
23573;SDS011;11965;53.640;10.050;2023-04-24T09:24:33;7.90;;;7.90;;
23573;SDS011;11965;53.640;10.050;2023-04-24T09:27:03;7.92;;;7.92;;
23573;SDS011;11965;53.640;10.050;2023-04-24T09:29:30;8.06;;;8.06;;
23573;SDS011;11965;53.640;10.050;2023-04-24T09:31:58;9.00;;;9.00;;
23573;SDS011;11965;53.640;10.050;2023-04-24T09:34:25;8.27;;;8.27;;
23573;SDS011;11965;53.640;10.050;2023-04-24T09:36:53;7.81;;;7.81;;
23573;SDS011;11965;53.640;10.050;2023-04-24T09:39:21;8.30;;;8.30;;
23573;SDS011;11965;53.640;10.050;2023-04-24T09:41:49;7.83;;;7.83;;
23573;SDS011;11965;53.640;10.050;2023-04-24T09:44:19;7.57;;;7.57;;
23573;SDS011;11965;53.640;10.050;2023-04-24T09:46:49;7.12;;;7.12;;
23573;SDS011;11965;53.640;10.050;2023-04-24T09:49:21;6.42;;;6.42;;
23573;SDS011;11965;53.640;10.050;2023-04-24T09:51:50;6.99;;;6.99;;
23573;SDS011;11965;53.640;10.050;2023-04-24T09:54:17;7.20;;;7.20;;
23573;SDS011;11965;53.640;10.050;2023-04-24T09:56:47;7.28;;;7.28;;
23573;SDS011;11965;53.640;10.050;2023-04-24T09:59:15;7.34;;;7.34;;
23573;SDS011;11965;53.640;10.050;2023-04-24T10:01:45;7.73;;;7.73;;
23573;SDS011;11965;53.640;10.050;2023-04-24T10:04:15;7.64;;;7.64;;
23573;SDS011;11965;53.640;10.050;2023-04-24T10:06:43;8.49;;;8.49;;
23573;SDS011;11965;53.640;10.050;2023-04-24T10:09:11;8.39;;;8.39;;
23573;SDS011;11965;53.640;10.050;2023-04-24T10:11:41;8.07;;;8.07;;
23573;SDS011;11965;53.640;10.050;2023-04-24T10:14:11;8.11;;;8.11;;
23573;SDS011;11965;53.640;10.050;2023-04-24T10:16:39;8.77;;;8.77;;
23573;SDS011;11965;53.640;10.050;2023-04-24T10:19:09;9.70;;;9.70;;
23573;SDS011;11965;53.640;10.050;2023-04-24T10:21:38;9.66;;;9.66;;
23573;SDS011;11965;53.640;10.050;2023-04-24T10:24:11;9.36;;;9.36;;
23573;SDS011;11965;53.640;10.050;2023-04-24T10:26:40;9.69;;;9.69;;
23573;SDS011;11965;53.640;10.050;2023-04-24T10:29:07;9.95;;;9.95;;
23573;SDS011;11965;53.640;10.050;2023-04-24T10:31:37;10.03;;;10.03;;
23573;SDS011;11965;53.640;10.050;2023-04-24T10:34:04;10.31;;;10.31;;
23573;SDS011;11965;53.640;10.050;2023-04-24T10:36:34;11.38;;;11.38;;
23573;SDS011;11965;53.640;10.050;2023-04-24T10:39:06;11.10;;;11.10;;
23573;SDS011;11965;53.640;10.050;2023-04-24T10:41:37;11.11;;;11.11;;
23573;SDS011;11965;53.640;10.050;2023-04-24T10:44:05;11.57;;;11.57;;
23573;SDS011;11965;53.640;10.050;2023-04-24T10:46:32;11.83;;;11.83;;
23573;SDS011;11965;53.640;10.050;2023-04-24T10:49:00;11.98;;;11.98;;
23573;SDS011;11965;53.640;10.050;2023-04-24T10:51:45;11.77;;;11.77;;
23573;SDS011;11965;53.640;10.050;2023-04-24T10:54:24;12.75;;;12.75;;
23573;SDS011;11965;53.640;10.050;2023-04-24T10:56:51;13.81;;;13.81;;
23573;SDS011;11965;53.640;10.050;2023-04-24T10:59:25;13.56;;;13.56;;
23573;SDS011;11965;53.640;10.050;2023-04-24T11:01:54;13.72;;;13.72;;
23573;SDS011;11965;53.640;10.050;2023-04-24T11:04:31;13.64;;;13.64;;
23573;SDS011;11965;53.640;10.050;2023-04-24T11:07:01;13.38;;;13.38;;
23573;SDS011;11965;53.640;10.050;2023-04-24T11:09:30;13.66;;;13.66;;
23573;SDS011;11965;53.640;10.050;2023-04-24T11:12:03;12.48;;;12.48;;
23573;SDS011;11965;53.640;10.050;2023-04-24T11:17:28;13.59;;;13.59;;
23573;SDS011;11965;53.640;10.050;2023-04-24T11:20:00;13.51;;;13.51;;
23573;SDS011;11965;53.640;10.050;2023-04-24T11:22:29;13.32;;;13.32;;
23573;SDS011;11965;53.640;10.050;2023-04-24T11:25:00;12.82;;;12.82;;
23573;SDS011;11965;53.640;10.050;2023-04-24T11:27:30;13.25;;;13.25;;
23573;SDS011;11965;53.640;10.050;2023-04-24T11:29:59;13.16;;;13.16;;
23573;SDS011;11965;53.640;10.050;2023-04-24T11:32:29;13.09;;;13.09;;
23573;SDS011;11965;53.640;10.050;2023-04-24T11:34:57;12.89;;;12.89;;
23573;SDS011;11965;53.640;10.050;2023-04-24T11:37:27;12.99;;;12.99;;
23573;SDS011;11965;53.640;10.050;2023-04-24T11:40:01;12.47;;;12.47;;
23573;SDS011;11965;53.640;10.050;2023-04-24T11:42:33;12.30;;;12.30;;
23573;SDS011;11965;53.640;10.050;2023-04-24T11:45:00;12.17;;;12.17;;
23573;SDS011;11965;53.640;10.050;2023-04-24T11:47:29;12.08;;;12.08;;
23573;SDS011;11965;53.640;10.050;2023-04-24T11:49:58;11.68;;;11.68;;
23573;SDS011;11965;53.640;10.050;2023-04-24T11:52:25;11.69;;;11.69;;
23573;SDS011;11965;53.640;10.050;2023-04-24T11:54:54;11.52;;;11.52;;
23573;SDS011;11965;53.640;10.050;2023-04-24T11:57:21;11.20;;;11.19;;
23573;SDS011;11965;53.640;10.050;2023-04-24T11:59:48;11.99;;;11.99;;
23573;SDS011;11965;53.640;10.050;2023-04-24T12:02:22;11.57;;;11.57;;
23573;SDS011;11965;53.640;10.050;2023-04-24T12:04:51;12.36;;;12.36;;
23573;SDS011;11965;53.640;10.050;2023-04-24T12:07:18;12.46;;;12.46;;
23573;SDS011;11965;53.640;10.050;2023-04-24T12:09:46;12.94;;;12.94;;
23573;SDS011;11965;53.640;10.050;2023-04-24T12:12:16;12.57;;;12.57;;
23573;SDS011;11965;53.640;10.050;2023-04-24T12:14:47;12.42;;;12.42;;
23573;SDS011;11965;53.640;10.050;2023-04-24T12:17:15;11.81;;;11.81;;
23573;SDS011;11965;53.640;10.050;2023-04-24T12:19:46;10.43;;;10.43;;
23573;SDS011;11965;53.640;10.050;2023-04-24T12:22:14;9.65;;;9.65;;
23573;SDS011;11965;53.640;10.050;2023-04-24T12:24:57;9.83;;;9.83;;
23573;SDS011;11965;53.640;10.050;2023-04-24T12:27:28;9.92;;;9.92;;
23573;SDS011;11965;53.640;10.050;2023-04-24T12:29:56;10.43;;;10.43;;
23573;SDS011;11965;53.640;10.050;2023-04-24T12:32:25;10.59;;;10.59;;
23573;SDS011;11965;53.640;10.050;2023-04-24T12:34:52;9.33;;;9.33;;
23573;SDS011;11965;53.640;10.050;2023-04-24T12:37:20;8.96;;;8.96;;
23573;SDS011;11965;53.640;10.050;2023-04-24T12:40:03;9.49;;;9.49;;
23573;SDS011;11965;53.640;10.050;2023-04-24T12:42:34;9.12;;;9.12;;
23573;SDS011;11965;53.640;10.050;2023-04-24T12:45:03;9.21;;;9.21;;
23573;SDS011;11965;53.640;10.050;2023-04-24T12:47:32;8.95;;;8.95;;
23573;SDS011;11965;53.640;10.050;2023-04-24T12:50:01;9.35;;;9.35;;
23573;SDS011;11965;53.640;10.050;2023-04-24T12:52:29;9.74;;;9.74;;
23573;SDS011;11965;53.640;10.050;2023-04-24T12:54:57;10.08;;;10.08;;
23573;SDS011;11965;53.640;10.050;2023-04-24T12:57:26;9.34;;;9.34;;
23573;SDS011;11965;53.640;10.050;2023-04-24T12:59:56;9.71;;;9.71;;
23573;SDS011;11965;53.640;10.050;2023-04-24T13:02:25;10.29;;;10.29;;
23573;SDS011;11965;53.640;10.050;2023-04-24T13:04:54;10.18;;;10.18;;
23573;SDS011;11965;53.640;10.050;2023-04-24T13:07:21;10.03;;;10.03;;
23573;SDS011;11965;53.640;10.050;2023-04-24T13:09:48;10.23;;;10.23;;
23573;SDS011;11965;53.640;10.050;2023-04-24T13:12:16;9.86;;;9.86;;
23573;SDS011;11965;53.640;10.050;2023-04-24T13:14:44;10.21;;;10.21;;
23573;SDS011;11965;53.640;10.050;2023-04-24T13:17:12;9.58;;;9.58;;
23573;SDS011;11965;53.640;10.050;2023-04-24T13:19:40;10.09;;;10.09;;
23573;SDS011;11965;53.640;10.050;2023-04-24T13:22:08;9.92;;;9.92;;
23573;SDS011;11965;53.640;10.050;2023-04-24T13:24:36;10.05;;;10.05;;
23573;SDS011;11965;53.640;10.050;2023-04-24T13:27:06;9.92;;;9.92;;
23573;SDS011;11965;53.640;10.050;2023-04-24T13:29:33;10.37;;;10.37;;
23573;SDS011;11965;53.640;10.050;2023-04-24T13:32:00;10.64;;;10.64;;
23573;SDS011;11965;53.640;10.050;2023-04-24T13:34:28;10.29;;;10.29;;
23573;SDS011;11965;53.640;10.050;2023-04-24T13:36:56;9.88;;;9.88;;
23573;SDS011;11965;53.640;10.050;2023-04-24T13:39:24;9.20;;;9.20;;
23573;SDS011;11965;53.640;10.050;2023-04-24T13:41:52;8.66;;;8.66;;
23573;SDS011;11965;53.640;10.050;2023-04-24T13:44:19;8.42;;;8.42;;
23573;SDS011;11965;53.640;10.050;2023-04-24T13:46:49;8.35;;;8.35;;
23573;SDS011;11965;53.640;10.050;2023-04-24T13:49:19;8.14;;;8.14;;
23573;SDS011;11965;53.640;10.050;2023-04-24T13:51:51;8.69;;;8.69;;
23573;SDS011;11965;53.640;10.050;2023-04-24T13:54:19;8.52;;;8.52;;
23573;SDS011;11965;53.640;10.050;2023-04-24T13:56:48;8.18;;;8.18;;
23573;SDS011;11965;53.640;10.050;2023-04-24T13:59:15;7.86;;;7.86;;
23573;SDS011;11965;53.640;10.050;2023-04-24T14:01:42;7.88;;;7.88;;
23573;SDS011;11965;53.640;10.050;2023-04-24T14:04:10;7.54;;;7.54;;
23573;SDS011;11965;53.640;10.050;2023-04-24T14:06:37;7.60;;;7.60;;
23573;SDS011;11965;53.640;10.050;2023-04-24T14:09:05;7.85;;;7.85;;
23573;SDS011;11965;53.640;10.050;2023-04-24T14:11:33;7.57;;;7.57;;
23573;SDS011;11965;53.640;10.050;2023-04-24T14:14:00;7.75;;;7.75;;
23573;SDS011;11965;53.640;10.050;2023-04-24T14:16:28;7.88;;;7.88;;
23573;SDS011;11965;53.640;10.050;2023-04-24T14:18:55;8.16;;;8.16;;
23573;SDS011;11965;53.640;10.050;2023-04-24T14:21:22;8.03;;;8.03;;
23573;SDS011;11965;53.640;10.050;2023-04-24T14:23:49;7.87;;;7.87;;
23573;SDS011;11965;53.640;10.050;2023-04-24T14:26:17;7.81;;;7.81;;
23573;SDS011;11965;53.640;10.050;2023-04-24T14:28:45;7.75;;;7.75;;
23573;SDS011;11965;53.640;10.050;2023-04-24T14:31:12;7.86;;;7.86;;
23573;SDS011;11965;53.640;10.050;2023-04-24T14:33:39;7.89;;;7.89;;
23573;SDS011;11965;53.640;10.050;2023-04-24T14:36:06;7.52;;;7.52;;
23573;SDS011;11965;53.640;10.050;2023-04-24T14:38:33;7.07;;;7.07;;
23573;SDS011;11965;53.640;10.050;2023-04-24T14:41:00;7.61;;;7.61;;
23573;SDS011;11965;53.640;10.050;2023-04-24T14:43:35;8.08;;;8.08;;